sensor_id;sensor_type;location;lat;lon;timestamp;temperature;humidity
827;DHT22;395;48.132;11.608;2023-09-08T00:01:33;18.20;1.00
827;DHT22;395;48.132;11.608;2023-09-08T00:03:58;18.20;1.00
827;DHT22;395;48.132;11.608;2023-09-08T00:06:24;18.20;1.00
827;DHT22;395;48.132;11.608;2023-09-08T00:08:50;18.20;1.00
827;DHT22;395;48.132;11.608;2023-09-08T00:11:15;18.20;1.00
827;DHT22;395;48.132;11.608;2023-09-08T00:13:41;18.20;1.00
827;DHT22;395;48.132;11.608;2023-09-08T00:16:07;18.20;1.00
827;DHT22;395;48.132;11.608;2023-09-08T00:18:33;18.20;1.00
827;DHT22;395;48.132;11.608;2023-09-08T00:20:58;18.20;1.00
827;DHT22;395;48.132;11.608;2023-09-08T00:23:24;18.10;1.00
827;DHT22;395;48.132;11.608;2023-09-08T00:25:51;18.10;1.00
827;DHT22;395;48.132;11.608;2023-09-08T00:28:17;18.10;1.00
827;DHT22;395;48.132;11.608;2023-09-08T00:30:42;18.10;1.00
827;DHT22;395;48.132;11.608;2023-09-08T00:33:08;18.00;1.00
827;DHT22;395;48.132;11.608;2023-09-08T00:35:35;18.00;1.00
827;DHT22;395;48.132;11.608;2023-09-08T00:38:00;18.00;1.00
827;DHT22;395;48.132;11.608;2023-09-08T00:40:29;17.90;1.00
827;DHT22;395;48.132;11.608;2023-09-08T00:42:55;17.90;1.00
827;DHT22;395;48.132;11.608;2023-09-08T00:45:20;17.90;1.00
827;DHT22;395;48.132;11.608;2023-09-08T00:47:46;17.90;1.00
827;DHT22;395;48.132;11.608;2023-09-08T00:50:12;17.90;1.00
827;DHT22;395;48.132;11.608;2023-09-08T00:52:38;17.80;1.00
827;DHT22;395;48.132;11.608;2023-09-08T00:55:04;17.70;1.00
827;DHT22;395;48.132;11.608;2023-09-08T00:57:30;17.80;1.00
827;DHT22;395;48.132;11.608;2023-09-08T00:59:56;17.70;1.00
827;DHT22;395;48.132;11.608;2023-09-08T01:02:22;17.70;1.00
827;DHT22;395;48.132;11.608;2023-09-08T01:04:49;17.70;1.00
827;DHT22;395;48.132;11.608;2023-09-08T01:07:15;17.70;1.00
827;DHT22;395;48.132;11.608;2023-09-08T01:09:42;17.70;1.00
827;DHT22;395;48.132;11.608;2023-09-08T01:12:08;17.70;1.00
827;DHT22;395;48.132;11.608;2023-09-08T01:14:33;17.70;1.00
827;DHT22;395;48.132;11.608;2023-09-08T01:16:59;17.70;1.00
827;DHT22;395;48.132;11.608;2023-09-08T01:19:25;17.60;1.00
827;DHT22;395;48.132;11.608;2023-09-08T01:27:12;17.50;1.00
827;DHT22;395;48.132;11.608;2023-09-08T01:29:40;17.50;1.00
827;DHT22;395;48.132;11.608;2023-09-08T01:32:07;17.60;1.00
827;DHT22;395;48.132;11.608;2023-09-08T01:34:34;17.60;1.00
827;DHT22;395;48.132;11.608;2023-09-08T01:37:02;17.50;1.00
827;DHT22;395;48.132;11.608;2023-09-08T01:39:29;17.50;1.00
827;DHT22;395;48.132;11.608;2023-09-08T01:41:55;17.50;1.00
827;DHT22;395;48.132;11.608;2023-09-08T01:44:20;17.50;1.00
827;DHT22;395;48.132;11.608;2023-09-08T01:46:46;17.50;1.00
827;DHT22;395;48.132;11.608;2023-09-08T01:49:12;17.40;1.00
827;DHT22;395;48.132;11.608;2023-09-08T01:51:37;17.40;1.00
827;DHT22;395;48.132;11.608;2023-09-08T01:54:03;17.40;1.00
827;DHT22;395;48.132;11.608;2023-09-08T01:56:29;17.30;1.00
827;DHT22;395;48.132;11.608;2023-09-08T01:58:54;17.30;1.00
827;DHT22;395;48.132;11.608;2023-09-08T02:01:20;17.30;1.00
827;DHT22;395;48.132;11.608;2023-09-08T02:03:45;17.20;1.00
827;DHT22;395;48.132;11.608;2023-09-08T02:06:11;17.20;1.00
827;DHT22;395;48.132;11.608;2023-09-08T02:08:36;17.10;1.00
827;DHT22;395;48.132;11.608;2023-09-08T02:11:02;17.10;1.00
827;DHT22;395;48.132;11.608;2023-09-08T02:13:28;17.10;1.00
827;DHT22;395;48.132;11.608;2023-09-08T02:15:54;17.00;1.00
827;DHT22;395;48.132;11.608;2023-09-08T02:18:19;17.00;1.00
827;DHT22;395;48.132;11.608;2023-09-08T02:20:45;17.00;1.00
827;DHT22;395;48.132;11.608;2023-09-08T02:23:11;17.00;1.00
827;DHT22;395;48.132;11.608;2023-09-08T02:25:36;16.90;1.00
827;DHT22;395;48.132;11.608;2023-09-08T02:28:02;16.90;1.00
827;DHT22;395;48.132;11.608;2023-09-08T02:30:27;16.90;1.00
827;DHT22;395;48.132;11.608;2023-09-08T02:32:53;16.90;1.00
827;DHT22;395;48.132;11.608;2023-09-08T02:35:21;16.90;1.00
827;DHT22;395;48.132;11.608;2023-09-08T02:37:47;16.90;1.00
827;DHT22;395;48.132;11.608;2023-09-08T02:40:12;16.90;1.00
827;DHT22;395;48.132;11.608;2023-09-08T02:42:38;16.80;1.00
827;DHT22;395;48.132;11.608;2023-09-08T02:45:04;16.80;1.00
827;DHT22;395;48.132;11.608;2023-09-08T02:47:30;16.80;1.00
827;DHT22;395;48.132;11.608;2023-09-08T02:49:55;16.70;1.00
827;DHT22;395;48.132;11.608;2023-09-08T02:52:22;16.70;1.00
827;DHT22;395;48.132;11.608;2023-09-08T02:54:48;16.70;1.00
827;DHT22;395;48.132;11.608;2023-09-08T02:57:13;16.70;1.00
827;DHT22;395;48.132;11.608;2023-09-08T02:59:39;16.50;1.00
827;DHT22;395;48.132;11.608;2023-09-08T03:02:04;16.60;1.00
827;DHT22;395;48.132;11.608;2023-09-08T03:04:30;16.60;1.00
827;DHT22;395;48.132;11.608;2023-09-08T03:06:55;16.60;1.00
827;DHT22;395;48.132;11.608;2023-09-08T03:09:21;16.70;1.00
827;DHT22;395;48.132;11.608;2023-09-08T03:11:47;16.70;1.00
827;DHT22;395;48.132;11.608;2023-09-08T03:14:12;16.60;1.00
827;DHT22;395;48.132;11.608;2023-09-08T03:16:38;16.60;1.00
827;DHT22;395;48.132;11.608;2023-09-08T03:19:04;16.60;1.00
827;DHT22;395;48.132;11.608;2023-09-08T03:21:29;16.60;1.00
827;DHT22;395;48.132;11.608;2023-09-08T03:23:55;16.60;1.00
827;DHT22;395;48.132;11.608;2023-09-08T03:26:20;16.60;1.00
827;DHT22;395;48.132;11.608;2023-09-08T03:28:46;16.60;1.00
827;DHT22;395;48.132;11.608;2023-09-08T03:31:12;16.60;1.00
827;DHT22;395;48.132;11.608;2023-09-08T03:33:37;16.60;1.00
827;DHT22;395;48.132;11.608;2023-09-08T03:36:04;16.60;1.00
827;DHT22;395;48.132;11.608;2023-09-08T03:38:29;16.60;1.00
827;DHT22;395;48.132;11.608;2023-09-08T03:40:55;16.50;1.00
827;DHT22;395;48.132;11.608;2023-09-08T03:43:21;16.50;1.00
827;DHT22;395;48.132;11.608;2023-09-08T03:45:46;16.50;1.00
827;DHT22;395;48.132;11.608;2023-09-08T03:48:12;16.50;1.00
827;DHT22;395;48.132;11.608;2023-09-08T03:50:38;16.50;1.00
827;DHT22;395;48.132;11.608;2023-09-08T03:53:04;16.50;1.00
827;DHT22;395;48.132;11.608;2023-09-08T03:55:29;16.50;1.00
827;DHT22;395;48.132;11.608;2023-09-08T03:57:55;16.50;1.00
827;DHT22;395;48.132;11.608;2023-09-08T04:00:21;16.40;1.00
827;DHT22;395;48.132;11.608;2023-09-08T04:02:49;16.40;1.00
827;DHT22;395;48.132;11.608;2023-09-08T04:05:17;16.40;1.00
827;DHT22;395;48.132;11.608;2023-09-08T04:07:46;16.40;1.00
827;DHT22;395;48.132;11.608;2023-09-08T04:10:12;16.30;1.00
827;DHT22;395;48.132;11.608;2023-09-08T04:12:39;16.30;1.00
827;DHT22;395;48.132;11.608;2023-09-08T04:15:05;16.20;1.00
827;DHT22;395;48.132;11.608;2023-09-08T04:17:31;16.20;1.00
827;DHT22;395;48.132;11.608;2023-09-08T04:19:57;16.20;1.00
827;DHT22;395;48.132;11.608;2023-09-08T04:22:22;16.30;1.00
827;DHT22;395;48.132;11.608;2023-09-08T04:24:48;16.20;1.00
827;DHT22;395;48.132;11.608;2023-09-08T04:27:14;16.30;1.00
827;DHT22;395;48.132;11.608;2023-09-08T04:29:39;16.20;1.00
827;DHT22;395;48.132;11.608;2023-09-08T04:32:05;16.30;1.00
827;DHT22;395;48.132;11.608;2023-09-08T04:34:41;16.30;1.00
827;DHT22;395;48.132;11.608;2023-09-08T04:37:08;16.30;1.00
827;DHT22;395;48.132;11.608;2023-09-08T04:39:35;16.20;1.00
827;DHT22;395;48.132;11.608;2023-09-08T04:42:02;16.10;1.00
827;DHT22;395;48.132;11.608;2023-09-08T04:44:28;16.20;1.00
827;DHT22;395;48.132;11.608;2023-09-08T04:46:54;16.20;1.00
827;DHT22;395;48.132;11.608;2023-09-08T04:49:20;16.20;1.00
827;DHT22;395;48.132;11.608;2023-09-08T04:51:46;16.20;1.00
827;DHT22;395;48.132;11.608;2023-09-08T04:54:11;16.30;1.00
827;DHT22;395;48.132;11.608;2023-09-08T04:56:39;16.30;1.00
827;DHT22;395;48.132;11.608;2023-09-08T04:59:05;16.30;1.00
827;DHT22;395;48.132;11.608;2023-09-08T05:01:30;16.30;1.00
827;DHT22;395;48.132;11.608;2023-09-08T05:03:58;16.30;1.00
827;DHT22;395;48.132;11.608;2023-09-08T05:06:25;16.40;1.00
827;DHT22;395;48.132;11.608;2023-09-08T05:08:50;16.40;1.00
827;DHT22;395;48.132;11.608;2023-09-08T05:11:16;16.50;1.00
827;DHT22;395;48.132;11.608;2023-09-08T05:13:42;16.50;1.00
827;DHT22;395;48.132;11.608;2023-09-08T05:16:08;16.50;1.00
827;DHT22;395;48.132;11.608;2023-09-08T05:18:38;16.50;1.00
827;DHT22;395;48.132;11.608;2023-09-08T05:21:04;16.50;1.00
827;DHT22;395;48.132;11.608;2023-09-08T05:23:30;16.50;1.00
827;DHT22;395;48.132;11.608;2023-09-08T05:25:55;16.40;1.00
827;DHT22;395;48.132;11.608;2023-09-08T05:28:21;16.50;1.00
827;DHT22;395;48.132;11.608;2023-09-08T05:30:47;16.40;1.00
827;DHT22;395;48.132;11.608;2023-09-08T05:33:12;16.50;1.00
827;DHT22;395;48.132;11.608;2023-09-08T05:35:38;16.60;1.00
827;DHT22;395;48.132;11.608;2023-09-08T05:38:04;16.70;1.00
827;DHT22;395;48.132;11.608;2023-09-08T05:40:30;16.60;1.00
827;DHT22;395;48.132;11.608;2023-09-08T05:42:56;16.70;1.00
827;DHT22;395;48.132;11.608;2023-09-08T05:45:21;16.70;1.00
827;DHT22;395;48.132;11.608;2023-09-08T05:47:48;16.70;1.00
827;DHT22;395;48.132;11.608;2023-09-08T05:50:14;16.80;1.00
827;DHT22;395;48.132;11.608;2023-09-08T05:52:40;16.90;1.00
827;DHT22;395;48.132;11.608;2023-09-08T05:55:06;16.90;1.00
827;DHT22;395;48.132;11.608;2023-09-08T05:57:32;16.90;1.00
827;DHT22;395;48.132;11.608;2023-09-08T05:59:57;17.00;1.00
827;DHT22;395;48.132;11.608;2023-09-08T06:02:23;17.00;1.00
827;DHT22;395;48.132;11.608;2023-09-08T06:04:48;17.10;1.00
827;DHT22;395;48.132;11.608;2023-09-08T06:07:14;17.20;1.00
827;DHT22;395;48.132;11.608;2023-09-08T06:09:40;17.20;1.00
827;DHT22;395;48.132;11.608;2023-09-08T06:12:06;17.30;1.00
827;DHT22;395;48.132;11.608;2023-09-08T06:14:31;17.30;1.00
827;DHT22;395;48.132;11.608;2023-09-08T06:16:57;17.30;1.00
827;DHT22;395;48.132;11.608;2023-09-08T06:19:22;17.40;1.00
827;DHT22;395;48.132;11.608;2023-09-08T06:21:48;17.40;1.00
827;DHT22;395;48.132;11.608;2023-09-08T06:24:14;17.50;1.00
827;DHT22;395;48.132;11.608;2023-09-08T06:26:39;17.40;1.00
827;DHT22;395;48.132;11.608;2023-09-08T06:29:05;17.40;1.00
827;DHT22;395;48.132;11.608;2023-09-08T06:31:31;17.50;1.00
827;DHT22;395;48.132;11.608;2023-09-08T06:33:56;17.60;1.50
827;DHT22;395;48.132;11.608;2023-09-08T06:36:22;17.70;1.50
827;DHT22;395;48.132;11.608;2023-09-08T06:38:48;17.80;1.00
827;DHT22;395;48.132;11.608;2023-09-08T06:41:13;17.80;1.00
827;DHT22;395;48.132;11.608;2023-09-08T06:43:39;17.90;1.20
827;DHT22;395;48.132;11.608;2023-09-08T06:46:04;18.00;1.00
827;DHT22;395;48.132;11.608;2023-09-08T06:48:30;18.00;1.00
827;DHT22;395;48.132;11.608;2023-09-08T06:50:56;18.10;1.00
827;DHT22;395;48.132;11.608;2023-09-08T06:53:22;18.10;1.00
827;DHT22;395;48.132;11.608;2023-09-08T06:55:48;18.20;1.00
827;DHT22;395;48.132;11.608;2023-09-08T06:58:14;18.20;1.00
827;DHT22;395;48.132;11.608;2023-09-08T07:00:43;18.20;1.00
827;DHT22;395;48.132;11.608;2023-09-08T07:03:08;18.30;1.00
827;DHT22;395;48.132;11.608;2023-09-08T07:05:35;18.30;1.00
827;DHT22;395;48.132;11.608;2023-09-08T07:08:01;18.30;1.00
827;DHT22;395;48.132;11.608;2023-09-08T07:10:27;18.30;1.00
827;DHT22;395;48.132;11.608;2023-09-08T07:12:52;18.30;1.00
827;DHT22;395;48.132;11.608;2023-09-08T07:15:18;18.40;1.00
827;DHT22;395;48.132;11.608;2023-09-08T07:17:44;18.50;1.00
827;DHT22;395;48.132;11.608;2023-09-08T07:20:09;18.50;1.00
827;DHT22;395;48.132;11.608;2023-09-08T07:22:35;18.60;1.00
827;DHT22;395;48.132;11.608;2023-09-08T07:25:01;18.60;1.00
827;DHT22;395;48.132;11.608;2023-09-08T07:27:26;18.70;1.00
827;DHT22;395;48.132;11.608;2023-09-08T07:29:52;18.80;1.00
827;DHT22;395;48.132;11.608;2023-09-08T07:32:18;18.80;1.00
827;DHT22;395;48.132;11.608;2023-09-08T07:34:44;18.80;1.00
827;DHT22;395;48.132;11.608;2023-09-08T07:37:10;18.90;1.00
827;DHT22;395;48.132;11.608;2023-09-08T07:39:35;18.90;1.00
827;DHT22;395;48.132;11.608;2023-09-08T07:42:02;19.00;1.00
827;DHT22;395;48.132;11.608;2023-09-08T07:44:27;19.00;1.00
827;DHT22;395;48.132;11.608;2023-09-08T07:46:54;19.00;1.00
827;DHT22;395;48.132;11.608;2023-09-08T07:49:21;19.00;1.00
827;DHT22;395;48.132;11.608;2023-09-08T07:51:47;19.10;1.00
827;DHT22;395;48.132;11.608;2023-09-08T07:54:13;19.10;1.00
827;DHT22;395;48.132;11.608;2023-09-08T07:56:39;19.10;1.00
827;DHT22;395;48.132;11.608;2023-09-08T07:59:06;19.20;1.00
827;DHT22;395;48.132;11.608;2023-09-08T08:01:32;19.20;1.00
827;DHT22;395;48.132;11.608;2023-09-08T08:03:58;19.20;1.00
827;DHT22;395;48.132;11.608;2023-09-08T08:06:24;19.20;1.00
827;DHT22;395;48.132;11.608;2023-09-08T08:08:49;19.30;1.00
827;DHT22;395;48.132;11.608;2023-09-08T08:11:16;19.30;1.00
827;DHT22;395;48.132;11.608;2023-09-08T08:13:45;19.40;1.00
827;DHT22;395;48.132;11.608;2023-09-08T08:16:11;19.40;1.00
827;DHT22;395;48.132;11.608;2023-09-08T08:18:37;19.40;1.00
827;DHT22;395;48.132;11.608;2023-09-08T08:21:03;19.50;1.00
827;DHT22;395;48.132;11.608;2023-09-08T08:23:30;19.60;1.00
827;DHT22;395;48.132;11.608;2023-09-08T08:25:56;19.60;1.00
827;DHT22;395;48.132;11.608;2023-09-08T08:28:22;19.60;1.00
827;DHT22;395;48.132;11.608;2023-09-08T08:30:47;19.60;1.00
827;DHT22;395;48.132;11.608;2023-09-08T08:33:14;19.70;1.00
827;DHT22;395;48.132;11.608;2023-09-08T08:35:39;19.70;1.00
827;DHT22;395;48.132;11.608;2023-09-08T08:38:05;19.80;1.00
827;DHT22;395;48.132;11.608;2023-09-08T08:40:31;19.80;1.00
827;DHT22;395;48.132;11.608;2023-09-08T08:42:59;19.80;1.00
827;DHT22;395;48.132;11.608;2023-09-08T08:45:26;19.90;1.00
827;DHT22;395;48.132;11.608;2023-09-08T08:47:52;19.90;1.00
827;DHT22;395;48.132;11.608;2023-09-08T08:50:20;20.00;1.00
827;DHT22;395;48.132;11.608;2023-09-08T08:52:46;20.00;1.00
827;DHT22;395;48.132;11.608;2023-09-08T08:55:12;20.00;1.00
827;DHT22;395;48.132;11.608;2023-09-08T08:57:41;20.10;1.00
827;DHT22;395;48.132;11.608;2023-09-08T09:00:09;20.10;1.00
827;DHT22;395;48.132;11.608;2023-09-08T09:02:40;20.20;1.00
827;DHT22;395;48.132;11.608;2023-09-08T09:05:12;20.20;1.00
827;DHT22;395;48.132;11.608;2023-09-08T09:07:39;20.30;1.00
827;DHT22;395;48.132;11.608;2023-09-08T09:10:05;20.40;1.00
827;DHT22;395;48.132;11.608;2023-09-08T09:12:31;20.50;1.00
827;DHT22;395;48.132;11.608;2023-09-08T09:14:58;20.50;1.00
827;DHT22;395;48.132;11.608;2023-09-08T09:17:25;20.50;1.00
827;DHT22;395;48.132;11.608;2023-09-08T09:19:56;20.60;1.00
827;DHT22;395;48.132;11.608;2023-09-08T09:22:37;20.60;1.00
827;DHT22;395;48.132;11.608;2023-09-08T09:25:03;20.60;1.00
827;DHT22;395;48.132;11.608;2023-09-08T09:27:33;20.60;1.00
827;DHT22;395;48.132;11.608;2023-09-08T09:30:01;20.60;1.00
827;DHT22;395;48.132;11.608;2023-09-08T09:32:26;20.70;1.00
827;DHT22;395;48.132;11.608;2023-09-08T09:34:54;20.70;1.00
827;DHT22;395;48.132;11.608;2023-09-08T09:37:22;20.80;1.00
827;DHT22;395;48.132;11.608;2023-09-08T09:39:55;20.80;1.00
827;DHT22;395;48.132;11.608;2023-09-08T09:42:21;20.90;1.00
827;DHT22;395;48.132;11.608;2023-09-08T09:44:48;20.90;1.00
827;DHT22;395;48.132;11.608;2023-09-08T09:47:14;21.00;1.00
827;DHT22;395;48.132;11.608;2023-09-08T09:49:48;21.00;1.00
827;DHT22;395;48.132;11.608;2023-09-08T09:52:20;21.10;1.00
827;DHT22;395;48.132;11.608;2023-09-08T09:54:46;21.10;1.00
827;DHT22;395;48.132;11.608;2023-09-08T09:57:14;21.20;1.00
827;DHT22;395;48.132;11.608;2023-09-08T09:59:43;21.20;1.00
827;DHT22;395;48.132;11.608;2023-09-08T10:02:12;21.30;1.00
827;DHT22;395;48.132;11.608;2023-09-08T10:04:41;21.30;1.00
827;DHT22;395;48.132;11.608;2023-09-08T10:07:08;21.40;1.00
827;DHT22;395;48.132;11.608;2023-09-08T10:09:36;21.50;1.00
827;DHT22;395;48.132;11.608;2023-09-08T10:12:05;21.50;1.00
827;DHT22;395;48.132;11.608;2023-09-08T10:14:32;21.50;1.00
827;DHT22;395;48.132;11.608;2023-09-08T10:17:01;21.50;1.00
827;DHT22;395;48.132;11.608;2023-09-08T10:19:27;21.60;1.00
827;DHT22;395;48.132;11.608;2023-09-08T10:21:56;21.60;1.00
827;DHT22;395;48.132;11.608;2023-09-08T10:24:27;21.50;1.00
827;DHT22;395;48.132;11.608;2023-09-08T10:27:10;21.60;1.00
827;DHT22;395;48.132;11.608;2023-09-08T10:29:39;21.70;1.00
827;DHT22;395;48.132;11.608;2023-09-08T10:32:07;21.70;1.00
827;DHT22;395;48.132;11.608;2023-09-08T10:34:34;21.80;1.00
827;DHT22;395;48.132;11.608;2023-09-08T10:37:01;21.80;1.00
827;DHT22;395;48.132;11.608;2023-09-08T10:39:33;21.90;1.00
827;DHT22;395;48.132;11.608;2023-09-08T10:47:41;22.00;1.00
827;DHT22;395;48.132;11.608;2023-09-08T10:50:04;22.00;1.00
827;DHT22;395;48.132;11.608;2023-09-08T10:52:30;22.10;1.00
827;DHT22;395;48.132;11.608;2023-09-08T10:54:58;22.10;1.00
827;DHT22;395;48.132;11.608;2023-09-08T10:57:25;22.20;1.00
827;DHT22;395;48.132;11.608;2023-09-08T10:59:58;22.30;1.00
827;DHT22;395;48.132;11.608;2023-09-08T11:02:49;22.50;1.00
827;DHT22;395;48.132;11.608;2023-09-08T11:05:16;22.50;1.00
827;DHT22;395;48.132;11.608;2023-09-08T11:07:44;22.60;1.00
827;DHT22;395;48.132;11.608;2023-09-08T11:10:11;22.70;1.00
827;DHT22;395;48.132;11.608;2023-09-08T11:12:37;22.70;1.00
827;DHT22;395;48.132;11.608;2023-09-08T11:15:04;22.70;1.00
827;DHT22;395;48.132;11.608;2023-09-08T11:17:31;22.70;1.00
827;DHT22;395;48.132;11.608;2023-09-08T11:19:57;22.70;1.00
827;DHT22;395;48.132;11.608;2023-09-08T11:22:25;22.70;1.00
827;DHT22;395;48.132;11.608;2023-09-08T11:24:56;22.80;1.00
827;DHT22;395;48.132;11.608;2023-09-08T11:27:27;22.90;1.00
827;DHT22;395;48.132;11.608;2023-09-08T11:29:53;23.00;1.00
827;DHT22;395;48.132;11.608;2023-09-08T11:32:18;23.10;1.00
827;DHT22;395;48.132;11.608;2023-09-08T11:34:45;23.10;1.00
827;DHT22;395;48.132;11.608;2023-09-08T11:37:11;23.20;1.00
827;DHT22;395;48.132;11.608;2023-09-08T11:39:43;23.20;1.00
827;DHT22;395;48.132;11.608;2023-09-08T11:42:12;23.20;1.00
827;DHT22;395;48.132;11.608;2023-09-08T11:44:38;23.20;1.00
827;DHT22;395;48.132;11.608;2023-09-08T11:47:06;23.20;1.00
827;DHT22;395;48.132;11.608;2023-09-08T11:49:36;23.30;1.00
827;DHT22;395;48.132;11.608;2023-09-08T11:52:03;23.40;1.00
827;DHT22;395;48.132;11.608;2023-09-08T11:54:33;23.50;1.00
827;DHT22;395;48.132;11.608;2023-09-08T11:57:04;23.60;1.00
827;DHT22;395;48.132;11.608;2023-09-08T11:59:32;23.60;1.00
827;DHT22;395;48.132;11.608;2023-09-08T12:01:58;23.60;1.00
827;DHT22;395;48.132;11.608;2023-09-08T12:04:24;23.60;1.00
827;DHT22;395;48.132;11.608;2023-09-08T12:06:52;23.80;1.00
827;DHT22;395;48.132;11.608;2023-09-08T12:09:20;23.90;1.00
827;DHT22;395;48.132;11.608;2023-09-08T12:11:46;24.00;1.00
827;DHT22;395;48.132;11.608;2023-09-08T12:14:13;24.10;1.00
827;DHT22;395;48.132;11.608;2023-09-08T12:16:40;24.20;1.00
827;DHT22;395;48.132;11.608;2023-09-08T12:19:07;24.20;1.00
827;DHT22;395;48.132;11.608;2023-09-08T12:21:54;24.20;1.00
827;DHT22;395;48.132;11.608;2023-09-08T12:24:42;24.20;1.00
827;DHT22;395;48.132;11.608;2023-09-08T12:27:06;24.30;1.00
827;DHT22;395;48.132;11.608;2023-09-08T12:29:31;24.40;1.00
827;DHT22;395;48.132;11.608;2023-09-08T12:31:57;24.40;1.00
827;DHT22;395;48.132;11.608;2023-09-08T12:34:23;24.40;1.00
827;DHT22;395;48.132;11.608;2023-09-08T12:36:48;24.50;1.00
827;DHT22;395;48.132;11.608;2023-09-08T12:39:14;24.60;1.00
827;DHT22;395;48.132;11.608;2023-09-08T12:41:40;24.60;1.00
827;DHT22;395;48.132;11.608;2023-09-08T12:44:06;24.70;1.00
827;DHT22;395;48.132;11.608;2023-09-08T12:46:31;24.70;1.00
827;DHT22;395;48.132;11.608;2023-09-08T12:48:59;24.80;1.00
827;DHT22;395;48.132;11.608;2023-09-08T12:51:24;24.90;1.00
827;DHT22;395;48.132;11.608;2023-09-08T12:53:50;24.90;1.00
827;DHT22;395;48.132;11.608;2023-09-08T12:56:16;25.00;1.00
827;DHT22;395;48.132;11.608;2023-09-08T12:58:41;25.10;1.00
827;DHT22;395;48.132;11.608;2023-09-08T13:01:07;25.10;1.00
827;DHT22;395;48.132;11.608;2023-09-08T13:03:33;25.30;1.00
827;DHT22;395;48.132;11.608;2023-09-08T13:05:58;25.40;1.00
827;DHT22;395;48.132;11.608;2023-09-08T13:08:24;25.40;1.00
827;DHT22;395;48.132;11.608;2023-09-08T13:10:49;25.40;1.00
827;DHT22;395;48.132;11.608;2023-09-08T13:13:15;25.50;1.00
827;DHT22;395;48.132;11.608;2023-09-08T13:15:40;25.60;1.00
827;DHT22;395;48.132;11.608;2023-09-08T13:18:06;25.80;1.00
827;DHT22;395;48.132;11.608;2023-09-08T13:20:32;25.80;1.00
827;DHT22;395;48.132;11.608;2023-09-08T13:22:57;25.80;1.00
827;DHT22;395;48.132;11.608;2023-09-08T13:25:23;25.90;1.00
827;DHT22;395;48.132;11.608;2023-09-08T13:27:49;25.90;1.00
827;DHT22;395;48.132;11.608;2023-09-08T13:30:15;26.00;1.00
827;DHT22;395;48.132;11.608;2023-09-08T13:32:41;26.20;1.00
827;DHT22;395;48.132;11.608;2023-09-08T13:35:08;26.20;1.00
827;DHT22;395;48.132;11.608;2023-09-08T13:37:34;26.30;1.00
827;DHT22;395;48.132;11.608;2023-09-08T13:40:03;26.30;1.00
827;DHT22;395;48.132;11.608;2023-09-08T13:42:31;26.40;1.00
827;DHT22;395;48.132;11.608;2023-09-08T13:44:57;26.60;1.00
827;DHT22;395;48.132;11.608;2023-09-08T13:47:23;26.60;1.00
827;DHT22;395;48.132;11.608;2023-09-08T13:49:48;26.60;1.00
827;DHT22;395;48.132;11.608;2023-09-08T13:52:14;26.60;1.00
827;DHT22;395;48.132;11.608;2023-09-08T13:54:40;26.70;1.00
827;DHT22;395;48.132;11.608;2023-09-08T13:57:06;26.60;1.00
827;DHT22;395;48.132;11.608;2023-09-08T13:59:31;26.70;1.00
827;DHT22;395;48.132;11.608;2023-09-08T14:01:57;26.80;1.00
827;DHT22;395;48.132;11.608;2023-09-08T14:04:25;26.80;1.00
827;DHT22;395;48.132;11.608;2023-09-08T14:06:50;26.80;1.00
827;DHT22;395;48.132;11.608;2023-09-08T14:09:16;26.90;1.00
827;DHT22;395;48.132;11.608;2023-09-08T14:11:42;27.00;1.00
827;DHT22;395;48.132;11.608;2023-09-08T14:14:08;27.00;1.00
827;DHT22;395;48.132;11.608;2023-09-08T14:16:33;27.00;1.00
827;DHT22;395;48.132;11.608;2023-09-08T14:19:00;27.10;1.00
827;DHT22;395;48.132;11.608;2023-09-08T14:21:26;27.20;1.00
827;DHT22;395;48.132;11.608;2023-09-08T14:26:17;27.20;1.00
827;DHT22;395;48.132;11.608;2023-09-08T14:28:45;27.20;1.00
827;DHT22;395;48.132;11.608;2023-09-08T14:31:11;27.20;1.00
827;DHT22;395;48.132;11.608;2023-09-08T14:33:37;27.20;1.00
827;DHT22;395;48.132;11.608;2023-09-08T14:36:02;27.20;1.00
827;DHT22;395;48.132;11.608;2023-09-08T14:38:29;27.30;1.00
827;DHT22;395;48.132;11.608;2023-09-08T14:41:01;27.30;1.00
827;DHT22;395;48.132;11.608;2023-09-08T14:43:29;27.40;1.00
827;DHT22;395;48.132;11.608;2023-09-08T14:45:55;27.50;1.00
827;DHT22;395;48.132;11.608;2023-09-08T14:48:23;27.50;1.00
827;DHT22;395;48.132;11.608;2023-09-08T14:50:48;27.50;1.00
827;DHT22;395;48.132;11.608;2023-09-08T14:53:14;27.50;1.00
827;DHT22;395;48.132;11.608;2023-09-08T14:55:40;27.60;1.00
827;DHT22;395;48.132;11.608;2023-09-08T14:58:06;27.70;1.00
827;DHT22;395;48.132;11.608;2023-09-08T15:00:31;27.70;1.00
827;DHT22;395;48.132;11.608;2023-09-08T15:02:57;27.80;1.00
827;DHT22;395;48.132;11.608;2023-09-08T15:05:23;27.70;1.00
827;DHT22;395;48.132;11.608;2023-09-08T15:07:49;27.80;1.00
827;DHT22;395;48.132;11.608;2023-09-08T15:10:15;27.80;1.00
827;DHT22;395;48.132;11.608;2023-09-08T15:12:41;27.80;1.00
827;DHT22;395;48.132;11.608;2023-09-08T15:15:07;27.90;1.00
827;DHT22;395;48.132;11.608;2023-09-08T15:17:33;27.90;1.00
827;DHT22;395;48.132;11.608;2023-09-08T15:19:58;27.80;1.00
827;DHT22;395;48.132;11.608;2023-09-08T15:22:25;27.90;1.00
827;DHT22;395;48.132;11.608;2023-09-08T15:24:51;28.00;1.00
827;DHT22;395;48.132;11.608;2023-09-08T15:27:16;28.00;1.00
827;DHT22;395;48.132;11.608;2023-09-08T15:29:42;28.00;1.00
827;DHT22;395;48.132;11.608;2023-09-08T15:32:08;28.00;1.00
827;DHT22;395;48.132;11.608;2023-09-08T15:34:34;28.00;1.00
827;DHT22;395;48.132;11.608;2023-09-08T15:37:00;28.00;1.00
827;DHT22;395;48.132;11.608;2023-09-08T15:39:25;28.00;1.00
827;DHT22;395;48.132;11.608;2023-09-08T15:41:51;28.00;1.00
827;DHT22;395;48.132;11.608;2023-09-08T15:44:17;28.10;1.00
827;DHT22;395;48.132;11.608;2023-09-08T15:46:43;28.10;1.00
827;DHT22;395;48.132;11.608;2023-09-08T15:49:11;28.10;1.00
827;DHT22;395;48.132;11.608;2023-09-08T15:51:37;28.00;1.00
827;DHT22;395;48.132;11.608;2023-09-08T15:54:03;28.00;1.00
827;DHT22;395;48.132;11.608;2023-09-08T15:56:29;28.00;1.00
827;DHT22;395;48.132;11.608;2023-09-08T15:58:55;28.00;1.00
827;DHT22;395;48.132;11.608;2023-09-08T16:01:23;27.90;1.00
827;DHT22;395;48.132;11.608;2023-09-08T16:03:48;27.90;1.00
827;DHT22;395;48.132;11.608;2023-09-08T16:06:14;27.90;1.00
827;DHT22;395;48.132;11.608;2023-09-08T16:08:40;27.90;1.00
827;DHT22;395;48.132;11.608;2023-09-08T16:11:05;27.90;1.00
827;DHT22;395;48.132;11.608;2023-09-08T16:13:31;27.80;1.00
827;DHT22;395;48.132;11.608;2023-09-08T16:15:57;27.60;1.00
827;DHT22;395;48.132;11.608;2023-09-08T16:18:23;27.50;1.00
827;DHT22;395;48.132;11.608;2023-09-08T16:20:48;27.50;1.00
827;DHT22;395;48.132;11.608;2023-09-08T16:23:14;27.50;1.00
827;DHT22;395;48.132;11.608;2023-09-08T16:25:40;27.40;1.00
827;DHT22;395;48.132;11.608;2023-09-08T16:28:05;27.30;1.00
827;DHT22;395;48.132;11.608;2023-09-08T16:30:31;27.20;1.00
827;DHT22;395;48.132;11.608;2023-09-08T16:32:57;27.10;1.00
827;DHT22;395;48.132;11.608;2023-09-08T16:35:22;27.00;1.00
827;DHT22;395;48.132;11.608;2023-09-08T16:37:48;27.00;1.00
827;DHT22;395;48.132;11.608;2023-09-08T16:40:14;26.80;1.00
827;DHT22;395;48.132;11.608;2023-09-08T16:42:40;26.60;1.00